Time;durP1;ratioP1;P1;durP2;ratioP2;P2;SDS_P1;SDS_P2;PMS_P1;PMS_P2;Temp;Humidity;BMP_temperature;BMP_pressure;BME280_temperature;BME280_humidity;BME280_pressure;Samples;Min_cycle;Max_cycle;Signal;HPM_P1;HPM_P2
2022/04/22 00:01:05;;;;;;;3.63;2.35;;;;;;;;;;7392639;19;20066;-83
2022/04/22 00:03:31;;;;;;;6.30;2.60;;;;;;;;;;7390988;19;20054;-84
2022/04/22 00:05:56;;;;;;;3.75;2.38;;;;;;;;;;7389263;19;20018;-83
2022/04/22 00:08:22;;;;;;;3.45;2.38;;;;;;;;;;7391648;19;20137;-84
2022/04/22 00:13:31;;;;;;;4.05;2.83;;;;;;;;;;7422554;19;20075;-84
2022/04/22 00:15:56;;;;;;;4.07;2.45;;;;;;;;;;7421782;19;20023;-83
2022/04/22 00:18:22;;;;;;;4.15;2.60;;;;;;;;;;7421696;19;20035;-83
2022/04/22 00:20:48;;;;;;;6.03;3.05;;;;;;;;;;7404709;19;20014;-83
2022/04/22 00:23:13;;;;;;;3.38;2.45;;;;;;;;;;7388313;19;20049;-83
2022/04/22 00:25:38;;;;;;;4.35;2.65;;;;;;;;;;7386026;19;20577;-82
2022/04/22 00:28:04;;;;;;;4.15;2.42;;;;;;;;;;7387728;19;20010;-83
2022/04/22 00:30:29;;;;;;;4.03;2.50;;;;;;;;;;7392790;19;20008;-84
2022/04/22 00:32:54;;;;;;;3.78;2.65;;;;;;;;;;7388435;19;20011;-83
2022/04/22 00:35:20;;;;;;;4.50;2.60;;;;;;;;;;7389426;19;20010;-83
2022/04/22 00:37:46;;;;;;;4.45;2.78;;;;;;;;;;7390372;19;20010;-83
2022/04/22 00:40:12;;;;;;;6.10;2.90;;;;;;;;;;7390836;19;20352;-83
2022/04/22 00:42:38;;;;;;;4.32;2.80;;;;;;;;;;7383818;19;20424;-83
2022/04/22 00:45:03;;;;;;;3.47;2.60;;;;;;;;;;7387894;19;20440;-84
2022/04/22 00:47:29;;;;;;;4.03;2.80;;;;;;;;;;7391463;19;20026;-82
2022/04/22 00:49:54;;;;;;;6.53;2.67;;;;;;;;;;7386706;19;20039;-83
2022/04/22 00:52:20;;;;;;;5.15;2.97;;;;;;;;;;7389111;19;20371;-82
2022/04/22 00:54:47;;;;;;;3.60;2.72;;;;;;;;;;7388239;19;20011;-83
2022/04/22 00:57:13;;;;;;;3.47;2.50;;;;;;;;;;7390022;19;20521;-82
2022/04/22 00:59:39;;;;;;;7.20;2.78;;;;;;;;;;7388311;19;20022;-83
2022/04/22 01:02:05;;;;;;;4.65;2.67;;;;;;;;;;7388633;19;20360;-83
2022/04/22 01:09:58;;;;;;;4.80;2.72;;;;;;;;;;7389354;19;20145;-81
2022/04/22 01:12:26;;;;;;;4.00;2.50;;;;;;;;;;7386691;19;20389;-82
2022/04/22 01:14:51;;;;;;;3.65;2.58;;;;;;;;;;7389975;19;20055;-82
2022/04/22 01:17:16;;;;;;;5.40;2.67;;;;;;;;;;7389384;19;20523;-83
2022/04/22 01:19:42;;;;;;;4.47;3.05;;;;;;;;;;7387769;19;20477;-83
2022/04/22 01:22:08;;;;;;;4.93;2.85;;;;;;;;;;7386521;19;20022;-81
2022/04/22 01:24:33;;;;;;;5.47;2.63;;;;;;;;;;7387985;19;20018;-83
2022/04/22 01:26:59;;;;;;;6.65;3.30;;;;;;;;;;7387593;19;20115;-81
2022/04/22 01:29:24;;;;;;;4.15;2.70;;;;;;;;;;7388273;19;20320;-81
2022/04/22 01:31:50;;;;;;;4.65;2.90;;;;;;;;;;7386293;19;20155;-83
2022/04/22 01:34:15;;;;;;;5.53;3.53;;;;;;;;;;7387006;19;20035;-81
2022/04/22 01:36:41;;;;;;;6.00;3.33;;;;;;;;;;7390287;19;20030;-82
2022/04/22 01:39:06;;;;;;;5.55;3.17;;;;;;;;;;7394298;19;20038;-81
2022/04/22 01:41:31;;;;;;;5.50;3.15;;;;;;;;;;7394153;19;20010;-81
2022/04/22 01:43:57;;;;;;;4.53;3.33;;;;;;;;;;7395307;19;20010;-81
2022/04/22 01:46:22;;;;;;;5.63;3.33;;;;;;;;;;7397935;19;20009;-81
2022/04/22 01:48:48;;;;;;;5.38;3.10;;;;;;;;;;7393231;19;20021;-82
2022/04/22 01:51:13;;;;;;;4.25;3.08;;;;;;;;;;7393872;19;20406;-81
2022/04/22 01:53:38;;;;;;;5.68;3.40;;;;;;;;;;7395704;19;20492;-82
2022/04/22 01:56:04;;;;;;;4.82;3.50;;;;;;;;;;7397402;19;20050;-82
2022/04/22 01:58:29;;;;;;;6.10;3.85;;;;;;;;;;7392480;19;20007;-82
2022/04/22 02:00:54;;;;;;;7.05;3.90;;;;;;;;;;7393480;19;20018;-82
2022/04/22 02:03:20;;;;;;;5.72;3.35;;;;;;;;;;7387997;19;20483;-82
2022/04/22 02:05:46;;;;;;;6.45;3.58;;;;;;;;;;7391020;19;20014;-82
2022/04/22 02:08:12;;;;;;;5.90;3.65;;;;;;;;;;7391308;19;20458;-81
2022/04/22 02:10:38;;;;;;;5.13;3.58;;;;;;;;;;7393844;19;20007;-81
2022/04/22 02:13:04;;;;;;;6.40;4.40;;;;;;;;;;7390178;19;20109;-81
2022/04/22 02:15:30;;;;;;;6.15;3.80;;;;;;;;;;7392983;19;20022;-81
2022/04/22 02:17:55;;;;;;;7.10;4.20;;;;;;;;;;7390466;19;20130;-83
2022/04/22 02:20:22;;;;;;;6.57;4.18;;;;;;;;;;7394245;19;20082;-83
2022/04/22 02:22:47;;;;;;;5.35;3.42;;;;;;;;;;7392875;19;20029;-80
2022/04/22 02:25:12;;;;;;;6.40;4.50;;;;;;;;;;7394475;19;20518;-83
2022/04/22 02:30:23;;;;;;;7.13;4.00;;;;;;;;;;7395430;19;20047;-83
2022/04/22 02:32:48;;;;;;;9.10;4.53;;;;;;;;;;7387946;19;20342;-82
2022/04/22 02:35:13;;;;;;;7.95;4.50;;;;;;;;;;7392471;19;20010;-82
2022/04/22 02:37:39;;;;;;;7.18;4.40;;;;;;;;;;7392309;19;20507;-81
2022/04/22 02:40:05;;;;;;;7.07;4.45;;;;;;;;;;7392152;19;20017;-81
2022/04/22 02:45:26;;;;;;;6.63;3.80;;;;;;;;;;7393950;19;20022;-82
2022/04/22 02:47:52;;;;;;;6.35;4.10;;;;;;;;;;7391253;19;20007;-81
2022/04/22 02:50:17;;;;;;;7.45;4.80;;;;;;;;;;7389612;19;20405;-81
2022/04/22 02:52:42;;;;;;;6.25;4.30;;;;;;;;;;7389905;19;20006;-83
2022/04/22 02:55:08;;;;;;;7.10;4.82;;;;;;;;;;7394741;19;20425;-81
2022/04/22 02:57:33;;;;;;;6.35;3.83;;;;;;;;;;7391855;19;20010;-81
2022/04/22 02:59:59;;;;;;;8.23;4.45;;;;;;;;;;7390608;19;20023;-81
2022/04/22 03:02:24;;;;;;;7.45;4.10;;;;;;;;;;7391058;19;20042;-80
2022/04/22 03:04:49;;;;;;;7.45;4.50;;;;;;;;;;7395186;19;20003;-83
2022/04/22 03:07:15;;;;;;;8.20;4.43;;;;;;;;;;7390205;19;20022;-81
2022/04/22 03:09:40;;;;;;;10.27;4.03;;;;;;;;;;7390587;19;20058;-82
2022/04/22 03:12:06;;;;;;;6.43;4.47;;;;;;;;;;7389466;19;20011;-81
2022/04/22 03:14:32;;;;;;;9.13;4.65;;;;;;;;;;7391731;19;20373;-80
2022/04/22 03:16:57;;;;;;;8.95;4.55;;;;;;;;;;7392000;19;20046;-81
2022/04/22 03:19:23;;;;;;;8.50;4.38;;;;;;;;;;7392516;19;20021;-83
2022/04/22 03:21:48;;;;;;;6.95;4.57;;;;;;;;;;7388758;19;20459;-81
2022/04/22 03:24:14;;;;;;;6.68;4.25;;;;;;;;;;7391927;19;20058;-81
2022/04/22 03:26:39;;;;;;;6.97;4.65;;;;;;;;;;7390377;19;20393;-80
2022/04/22 03:29:04;;;;;;;6.75;4.55;;;;;;;;;;7389866;19;20046;-80
2022/04/22 03:31:30;;;;;;;6.22;4.30;;;;;;;;;;7390708;19;20452;-83
2022/04/22 03:33:55;;;;;;;10.55;5.13;;;;;;;;;;7391533;19;20038;-84
2022/04/22 03:36:20;;;;;;;8.43;5.10;;;;;;;;;;7392121;19;20462;-82
2022/04/22 03:38:45;;;;;;;9.13;5.05;;;;;;;;;;7391932;19;20033;-82
2022/04/22 03:41:11;;;;;;;8.32;5.10;;;;;;;;;;7389600;19;20010;-81
2022/04/22 03:43:37;;;;;;;8.45;4.80;;;;;;;;;;7391236;19;20485;-83
2022/04/22 03:46:03;;;;;;;8.35;4.45;;;;;;;;;;7387243;19;20017;-81
2022/04/22 03:48:32;;;;;;;8.52;5.00;;;;;;;;;;7387767;19;20077;-82
2022/04/22 03:50:57;;;;;;;7.65;4.80;;;;;;;;;;7389013;19;20031;-84
2022/04/22 04:53:40;;;;;;;8.70;5.18;;;;;;;;;;7398774;19;20006;-81
2022/04/22 05:00:11;;;;;;;8.45;5.15;;;;;;;;;;7400516;19;20023;-83
2022/04/22 05:02:41;;;;;;;10.93;5.18;;;;;;;;;;7395535;19;20027;-80
2022/04/22 05:41:47;;;;;;;7.72;5.30;;;;;;;;;;7407833;19;19982;-80
2022/04/22 05:45:07;;;;;;;8.88;5.28;;;;;;;;;;7404017;19;20563;-80
2022/04/22 05:54:36;;;;;;;8.95;5.28;;;;;;;;;;7404261;19;20035;-80
2022/04/22 05:57:29;;;;;;;10.57;6.22;;;;;;;;;;7403588;19;20018;-80
2022/04/22 06:00:37;;;;;;;9.38;6.20;;;;;;;;;;7404609;19;20165;-81
2022/04/22 06:04:15;;;;;;;9.43;6.07;;;;;;;;;;7391903;19;20102;-82
2022/04/22 06:10:59;;;;;;;9.98;6.15;;;;;;;;;;7398303;19;20012;-80
2022/04/22 06:14:31;;;;;;;;;;;;;;;;;;;;;
2022/04/22 06:23:47;;;;;;;11.00;6.25;;;;;;;;;;7394932;19;19989;-79
2022/04/22 06:26:50;;;;;;;10.80;6.53;;;;;;;;;;7397054;19;20089;-80
2022/04/22 06:29:37;;;;;;;11.98;6.60;;;;;;;;;;7393563;19;20352;-81
2022/04/22 06:32:04;;;;;;;11.95;6.60;;;;;;;;;;7396092;19;20018;-81
2022/04/22 06:34:50;;;;;;;10.45;6.20;;;;;;;;;;7393889;19;20006;-80
2022/04/22 06:37:56;;;;;;;9.55;6.22;;;;;;;;;;7402260;19;20330;-81
2022/04/22 06:49:55;;;;;;;12.13;6.57;;;;;;;;;;7396934;19;20198;-81
2022/04/22 06:52:39;;;;;;;15.43;6.10;;;;;;;;;;7393537;19;20010;-81
2022/04/22 06:56:04;;;;;;;9.38;6.30;;;;;;;;;;7398201;19;20369;-81
2022/04/22 06:59:40;;;;;;;7.53;5.80;;;;;;;;;;7400258;19;20006;-82
2022/04/22 07:05:19;;;;;;;12.75;6.20;;;;;;;;;;7417608;19;20025;-80
2022/04/22 07:07:45;;;;;;;8.75;5.90;;;;;;;;;;7427481;19;19999;-80
2022/04/22 07:10:10;;;;;;;8.82;5.55;;;;;;;;;;7420756;19;20015;-80
2022/04/22 07:12:36;;;;;;;9.52;5.93;;;;;;;;;;7423140;19;20014;-79
2022/04/22 07:15:04;;;;;;;8.43;5.40;;;;;;;;;;7419075;19;20015;-80
2022/04/22 07:17:37;;;;;;;8.77;5.85;;;;;;;;;;7397505;19;20008;-80
2022/04/22 07:20:17;;;;;;;8.18;5.03;;;;;;;;;;7403093;19;20026;-80
2022/04/22 07:22:44;;;;;;;10.55;5.68;;;;;;;;;;7395235;19;20416;-80
2022/04/22 07:25:11;;;;;;;8.35;5.28;;;;;;;;;;7402775;19;20019;-80
2022/04/22 07:27:39;;;;;;;8.68;5.65;;;;;;;;;;7402313;19;20006;-80
2022/04/22 07:30:15;;;;;;;8.95;5.43;;;;;;;;;;7402256;19;20006;-81
2022/04/22 07:32:41;;;;;;;8.40;4.97;;;;;;;;;;7401678;19;20060;-81
2022/04/22 07:35:11;;;;;;;9.32;4.93;;;;;;;;;;7399772;19;20002;-79
2022/04/22 07:48:11;;;;;;;6.63;4.72;;;;;;;;;;7402087;19;20039;-82
2022/04/22 07:51:25;;;;;;;7.70;4.57;;;;;;;;;;7396213;19;20002;-83
2022/04/22 07:54:04;;;;;;;9.02;5.00;;;;;;;;;;7391984;19;20023;-81
2022/04/22 07:56:32;;;;;;;8.18;5.15;;;;;;;;;;7391685;19;20364;-81
2022/04/22 07:58:58;;;;;;;7.07;4.75;;;;;;;;;;7396294;19;20026;-81
2022/04/22 08:01:24;;;;;;;8.60;5.28;;;;;;;;;;7393211;19;20411;-80
2022/04/22 08:03:50;;;;;;;8.73;4.82;;;;;;;;;;7399278;19;20014;-81
2022/04/22 08:06:15;;;;;;;6.75;4.60;;;;;;;;;;7399252;19;20042;-80
2022/04/22 08:08:40;;;;;;;6.47;3.90;;;;;;;;;;7399195;19;19991;-80
2022/04/22 08:11:06;;;;;;;9.52;4.38;;;;;;;;;;7396423;19;19998;-80
2022/04/22 08:13:32;;;;;;;7.35;4.50;;;;;;;;;;7400068;19;19990;-80
2022/04/22 08:15:58;;;;;;;7.43;5.00;;;;;;;;;;7397656;19;20399;-80
2022/04/22 08:18:24;;;;;;;6.00;4.00;;;;;;;;;;7401042;19;20002;-81
2022/04/22 08:20:49;;;;;;;5.93;3.55;;;;;;;;;;7393481;19;20009;-81
2022/04/22 08:23:16;;;;;;;6.07;4.40;;;;;;;;;;7399905;19;20497;-80
2022/04/22 08:25:42;;;;;;;6.57;4.05;;;;;;;;;;7398335;19;20006;-80
2022/04/22 08:28:07;;;;;;;5.88;3.80;;;;;;;;;;7396509;19;20015;-81
2022/04/22 08:30:35;;;;;;;5.95;3.97;;;;;;;;;;7396559;19;19995;-80
2022/04/22 08:33:01;;;;;;;6.60;4.30;;;;;;;;;;7393347;19;20002;-80
2022/04/22 08:35:26;;;;;;;6.47;4.15;;;;;;;;;;7391992;19;20328;-81
2022/04/22 08:37:52;;;;;;;5.70;4.10;;;;;;;;;;7393375;19;20511;-81
2022/04/22 08:40:19;;;;;;;5.60;4.30;;;;;;;;;;7389620;19;21209;-79
2022/04/22 08:42:46;;;;;;;6.85;4.00;;;;;;;;;;7392250;19;20411;-80
2022/04/22 08:45:14;;;;;;;6.15;4.45;;;;;;;;;;7392565;19;20010;-79
2022/04/22 08:50:31;;;;;;;6.38;4.25;;;;;;;;;;7392584;19;20013;-80
2022/04/22 08:53:04;;;;;;;5.68;4.30;;;;;;;;;;7392554;19;20010;-81
2022/04/22 08:55:32;;;;;;;6.85;4.63;;;;;;;;;;7396487;19;20372;-80
2022/04/22 08:57:59;;;;;;;10.45;5.35;;;;;;;;;;7394700;19;20006;-80
2022/04/22 09:00:27;;;;;;;7.35;4.82;;;;;;;;;;7392745;19;20015;-79
2022/04/22 09:02:57;;;;;;;7.57;4.95;;;;;;;;;;7394475;19;20078;-80
2022/04/22 09:05:44;;;;;;;7.95;5.10;;;;;;;;;;7392332;19;20015;-80
2022/04/22 09:08:10;;;;;;;8.27;4.35;;;;;;;;;;7388313;19;20487;-79
2022/04/22 09:10:56;;;;;;;9.77;5.10;;;;;;;;;;7390681;19;20034;-83
2022/04/22 09:13:49;;;;;;;16.15;8.18;;;;;;;;;;7392367;19;20367;-82
2022/04/22 09:16:52;;;;;;;9.18;6.18;;;;;;;;;;7397316;19;20013;-82
2022/04/22 09:20:02;;;;;;;10.63;6.25;;;;;;;;;;7392643;19;20017;-81
2022/04/22 09:23:53;;;;;;;6.93;4.95;;;;;;;;;;7390426;19;20094;-81
2022/04/22 09:27:23;;;;;;;14.75;5.38;;;;;;;;;;7396412;19;19987;-81
2022/04/22 09:30:42;;;;;;;11.10;5.75;;;;;;;;;;7395252;19;20057;-82
2022/04/22 09:44:13;;;;;;;8.70;4.60;;;;;;;;;;7394351;19;20472;-81
2022/04/22 09:46:44;;;;;;;7.57;4.45;;;;;;;;;;7395182;19;20415;-83
2022/04/22 10:00:16;;;;;;;8.25;4.68;;;;;;;;;;7403605;19;20007;-83
2022/04/22 10:02:42;;;;;;;7.78;4.88;;;;;;;;;;7400369;19;20010;-80
2022/04/22 10:05:09;;;;;;;6.63;5.20;;;;;;;;;;7400298;19;20033;-82
2022/04/22 10:07:35;;;;;;;11.18;4.95;;;;;;;;;;7402308;19;20341;-82
2022/04/22 10:10:03;;;;;;;6.82;4.07;;;;;;;;;;7396109;19;20050;-82
2022/04/22 10:12:30;;;;;;;6.45;4.40;;;;;;;;;;7395807;19;20014;-81
2022/04/22 10:14:57;;;;;;;6.18;4.20;;;;;;;;;;7401746;19;20022;-82
2022/04/22 10:17:23;;;;;;;6.40;4.57;;;;;;;;;;7396044;19;20002;-82
2022/04/22 10:19:49;;;;;;;8.95;4.70;;;;;;;;;;7398687;19;20297;-81
2022/04/22 10:22:16;;;;;;;7.35;4.72;;;;;;;;;;7395483;19;20065;-82
2022/04/22 10:24:42;;;;;;;6.82;4.25;;;;;;;;;;7393954;19;20030;-83
2022/04/22 10:27:08;;;;;;;7.80;4.40;;;;;;;;;;7398147;19;20010;-82
2022/04/22 10:29:35;;;;;;;6.22;4.50;;;;;;;;;;7391610;19;20382;-82
2022/04/22 10:36:10;;;;;;;5.75;4.25;;;;;;;;;;7396511;19;19993;-83
2022/04/22 10:48:41;;;;;;;7.45;4.47;;;;;;;;;;7395159;19;20125;-85
2022/04/22 10:51:09;;;;;;;6.03;4.32;;;;;;;;;;7394145;19;20046;-85
2022/04/22 10:53:46;;;;;;;5.68;4.10;;;;;;;;;;7398204;19;20079;-85
2022/04/22 10:56:33;;;;;;;5.22;3.90;;;;;;;;;;7405425;19;20014;-82
2022/04/22 11:02:41;;;;;;;7.05;4.50;;;;;;;;;;7398566;19;19985;-84
2022/04/22 11:08:43;;;;;;;6.43;4.80;;;;;;;;;;7403781;19;19990;-82
2022/04/22 11:12:03;;;;;;;;;;;;;;;;;;;;;
2022/04/22 11:17:58;;;;;;;6.20;4.32;;;;;;;;;;7397094;19;20075;-82
2022/04/22 12:30:45;;;;;;;3.40;3.08;;;;;;;;;;7396187;19;20010;-83
2022/04/22 12:33:19;;;;;;;3.85;2.97;;;;;;;;;;7393157;19;20455;-82
2022/04/22 12:35:49;;;;;;;4.35;3.17;;;;;;;;;;7393578;19;20018;-83
2022/04/22 12:38:15;;;;;;;4.72;3.30;;;;;;;;;;7396722;19;20014;-82
2022/04/22 12:40:48;;;;;;;4.22;2.88;;;;;;;;;;7396208;19;20498;-83
2022/04/22 12:43:45;;;;;;;6.07;2.95;;;;;;;;;;7393892;19;20018;-83
2022/04/22 12:52:25;;;;;;;4.80;3.47;;;;;;;;;;7398645;19;20013;-82
2022/04/22 12:55:04;;;;;;;4.15;2.80;;;;;;;;;;7397460;19;20365;-80
2022/04/22 12:57:29;;;;;;;6.90;3.15;;;;;;;;;;7395179;19;20006;-77
2022/04/22 12:59:56;;;;;;;6.13;3.30;;;;;;;;;;7387008;19;20339;-80
2022/04/22 13:02:30;;;;;;;4.15;3.30;;;;;;;;;;7389819;19;20013;-79
2022/04/22 13:04:57;;;;;;;3.92;3.20;;;;;;;;;;7391779;19;20011;-81
2022/04/22 13:07:23;;;;;;;4.43;3.15;;;;;;;;;;7389216;19;20014;-80
2022/04/22 13:09:49;;;;;;;4.28;3.10;;;;;;;;;;7389301;19;20141;-80
2022/04/22 13:12:14;;;;;;;3.75;3.10;;;;;;;;;;7382095;19;20021;-79
2022/04/22 13:14:40;;;;;;;8.13;3.40;;;;;;;;;;7390783;19;20571;-81
2022/04/22 13:17:06;;;;;;;5.07;3.42;;;;;;;;;;7392675;19;20034;-82
2022/04/22 13:19:32;;;;;;;3.65;3.00;;;;;;;;;;7395950;19;20356;-81
2022/04/22 13:21:57;;;;;;;4.78;3.22;;;;;;;;;;7390491;19;20002;-81
2022/04/22 13:24:23;;;;;;;3.00;2.40;;;;;;;;;;7391500;19;20014;-81
2022/04/22 13:26:48;;;;;;;3.80;2.67;;;;;;;;;;7392031;19;20037;-81
2022/04/22 13:29:14;;;;;;;4.65;2.97;;;;;;;;;;7390113;19;20109;-80
2022/04/22 13:31:39;;;;;;;3.78;3.20;;;;;;;;;;7385212;19;20014;-80
2022/04/22 13:34:05;;;;;;;6.03;3.05;;;;;;;;;;7390148;19;20038;-81
2022/04/22 13:36:31;;;;;;;4.30;3.42;;;;;;;;;;7400853;19;20038;-81
2022/04/22 13:38:56;;;;;;;4.35;2.88;;;;;;;;;;7400940;19;20010;-81
2022/04/22 13:41:21;;;;;;;3.83;2.85;;;;;;;;;;7394764;19;20050;-80
2022/04/22 13:43:47;;;;;;;3.20;2.90;;;;;;;;;;7399783;19;20006;-82
2022/04/22 13:54:24;;;;;;;4.70;3.35;;;;;;;;;;7396326;19;20027;-82
2022/04/22 13:56:50;;;;;;;3.92;3.03;;;;;;;;;;7398655;19;20011;-82
2022/04/22 13:59:15;;;;;;;4.40;3.20;;;;;;;;;;7401130;19;20031;-82
2022/04/22 14:01:41;;;;;;;3.42;3.13;;;;;;;;;;7414537;19;20006;-82
2022/04/22 14:04:07;;;;;;;4.55;3.13;;;;;;;;;;7425363;19;20021;-83
2022/04/22 14:06:32;;;;;;;11.18;3.17;;;;;;;;;;7426289;19;20003;-85
2022/04/22 14:08:57;;;;;;;3.78;3.00;;;;;;;;;;7426243;19;20014;-82
2022/04/22 14:11:23;;;;;;;5.18;3.20;;;;;;;;;;7420290;19;20010;-81
2022/04/22 14:13:48;;;;;;;3.90;3.03;;;;;;;;;;7396792;19;20062;-81
2022/04/22 14:16:13;;;;;;;4.07;3.67;;;;;;;;;;7393458;19;20114;-80
2022/04/22 14:18:38;;;;;;;7.03;3.10;;;;;;;;;;7395003;19;20641;-82
2022/04/22 14:21:04;;;;;;;3.58;2.42;;;;;;;;;;7395450;19;20018;-80
2022/04/22 14:23:30;;;;;;;4.88;3.00;;;;;;;;;;7394313;19;20124;-80
2022/04/22 14:25:56;;;;;;;3.85;2.95;;;;;;;;;;7396171;19;20002;-79
2022/04/22 14:28:22;;;;;;;3.13;2.75;;;;;;;;;;7397120;19;20015;-82
2022/04/22 14:30:49;;;;;;;5.30;2.88;;;;;;;;;;7394900;19;20002;-81
2022/04/22 14:33:15;;;;;;;4.07;2.67;;;;;;;;;;7393725;19;20099;-81
2022/04/22 14:35:40;;;;;;;2.97;2.53;;;;;;;;;;7395783;19;20014;-81
2022/04/22 14:38:05;;;;;;;2.60;2.40;;;;;;;;;;7394543;19;20339;-81
2022/04/22 14:40:31;;;;;;;7.07;2.42;;;;;;;;;;7396169;19;20010;-81
2022/04/22 14:42:56;;;;;;;3.20;2.65;;;;;;;;;;7395125;19;20359;-81
2022/04/22 14:45:22;;;;;;;2.97;2.60;;;;;;;;;;7392667;19;20014;-81
2022/04/22 14:47:48;;;;;;;3.78;2.60;;;;;;;;;;7394627;19;20778;-80
2022/04/22 14:50:14;;;;;;;3.42;2.97;;;;;;;;;;7393837;19;20010;-80
2022/04/22 14:52:40;;;;;;;4.43;2.85;;;;;;;;;;7391973;19;20615;-79
2022/04/22 14:55:06;;;;;;;3.65;2.72;;;;;;;;;;7393888;19;20585;-80
2022/04/22 14:57:31;;;;;;;3.65;3.30;;;;;;;;;;7390514;19;20030;-78
2022/04/22 14:59:56;;;;;;;4.35;3.05;;;;;;;;;;7394289;19;20074;-79
2022/04/22 15:02:22;;;;;;;3.38;3.05;;;;;;;;;;7391127;19;20011;-80
2022/04/22 15:04:48;;;;;;;3.88;2.83;;;;;;;;;;7392975;19;20015;-83
2022/04/22 15:07:13;;;;;;;4.47;3.15;;;;;;;;;;7392038;19;20472;-83
2022/04/22 15:09:38;;;;;;;6.00;3.28;;;;;;;;;;7389659;19;20014;-82
2022/04/22 15:12:04;;;;;;;3.33;2.88;;;;;;;;;;7393127;19;20467;-83
2022/04/22 15:14:29;;;;;;;3.47;3.17;;;;;;;;;;7394140;19;20026;-83
2022/04/22 15:16:55;;;;;;;4.57;3.35;;;;;;;;;;7392666;19;20014;-83
2022/04/22 15:24:51;;;;;;;6.45;3.10;;;;;;;;;;7394040;19;20143;-82
2022/04/22 15:27:16;;;;;;;4.72;2.95;;;;;;;;;;7392844;19;20030;-85
2022/04/22 15:29:42;;;;;;;6.20;3.42;;;;;;;;;;7392083;19;20007;-81
2022/04/22 15:32:07;;;;;;;3.38;2.50;;;;;;;;;;7391174;19;20507;-82
2022/04/22 15:34:34;;;;;;;5.65;2.95;;;;;;;;;;7393122;19;20002;-82
2022/04/22 15:37:01;;;;;;;3.92;3.08;;;;;;;;;;7393641;19;20046;-82
2022/04/22 15:39:26;;;;;;;3.30;2.65;;;;;;;;;;7393266;19;20021;-83
2022/04/22 15:41:55;;;;;;;3.88;3.20;;;;;;;;;;7390077;19;20655;-83
2022/04/22 15:44:29;;;;;;;4.68;3.00;;;;;;;;;;7392667;19;20010;-82
2022/04/22 15:46:55;;;;;;;5.03;3.28;;;;;;;;;;7392661;19;20014;-84
2022/04/22 15:49:21;;;;;;;3.50;3.17;;;;;;;;;;7392129;19;20087;-82
2022/04/22 15:51:46;;;;;;;4.65;2.72;;;;;;;;;;7391634;19;20058;-83
2022/04/22 15:54:12;;;;;;;7.10;2.95;;;;;;;;;;7391559;19;20471;-82
2022/04/22 15:56:37;;;;;;;5.18;2.95;;;;;;;;;;7392269;19;20408;-82
2022/04/22 15:59:04;;;;;;;3.72;2.35;;;;;;;;;;7391561;19;20007;-82
2022/04/22 16:01:37;;;;;;;3.08;2.72;;;;;;;;;;7392797;19;20026;-83
2022/04/22 16:04:07;;;;;;;4.78;3.00;;;;;;;;;;7389518;19;20030;-83
2022/04/22 16:06:32;;;;;;;3.60;2.70;;;;;;;;;;7391893;19;20021;-82
2022/04/22 16:08:57;;;;;;;4.32;3.05;;;;;;;;;;7380379;19;20074;-80
2022/04/22 16:16:51;;;;;;;3.42;2.85;;;;;;;;;;7391413;19;20047;-83
2022/04/22 16:19:18;;;;;;;4.25;2.78;;;;;;;;;;7387144;19;20377;-82
2022/04/22 16:21:44;;;;;;;3.00;2.60;;;;;;;;;;7387739;19;20472;-83
2022/04/22 16:24:09;;;;;;;3.88;3.00;;;;;;;;;;7389210;19;20011;-82
2022/04/22 16:26:35;;;;;;;2.95;2.60;;;;;;;;;;7392149;19;20017;-80
2022/04/22 16:29:00;;;;;;;3.13;2.80;;;;;;;;;;7388945;19;20010;-81
2022/04/22 16:31:26;;;;;;;4.03;2.50;;;;;;;;;;7391171;19;20151;-82
2022/04/22 16:33:52;;;;;;;4.13;2.75;;;;;;;;;;7392210;19;20428;-82
2022/04/22 16:36:18;;;;;;;2.45;2.08;;;;;;;;;;7391977;19;20020;-81
2022/04/22 16:38:45;;;;;;;4.55;2.40;;;;;;;;;;7388308;19;20007;-82
2022/04/22 16:41:12;;;;;;;2.65;1.92;;;;;;;;;;7391276;19;20035;-83
2022/04/22 16:43:37;;;;;;;2.63;2.30;;;;;;;;;;7388325;19;20106;-81
2022/04/22 16:46:07;;;;;;;6.55;2.20;;;;;;;;;;7393032;19;20018;-83
2022/04/22 16:48:34;;;;;;;4.88;2.25;;;;;;;;;;7389105;19;20482;-83
2022/04/22 16:50:59;;;;;;;2.75;2.00;;;;;;;;;;7391669;19;20023;-82
2022/04/22 16:53:25;;;;;;;3.42;1.98;;;;;;;;;;7390425;19;20033;-81
2022/04/22 16:55:50;;;;;;;4.15;2.30;;;;;;;;;;7390239;19;20014;-82
2022/04/22 16:58:16;;;;;;;2.40;2.03;;;;;;;;;;7388610;19;20417;-81
2022/04/22 17:00:42;;;;;;;2.08;1.70;;;;;;;;;;7392974;19;20049;-84
2022/04/22 17:03:07;;;;;;;5.80;1.77;;;;;;;;;;7389532;19;20010;-84
2022/04/22 17:05:32;;;;;;;1.67;1.30;;;;;;;;;;7392881;19;20010;-83
2022/04/22 17:07:58;;;;;;;1.75;1.25;;;;;;;;;;7395318;19;20048;-81
2022/04/22 17:10:23;;;;;;;2.92;1.30;;;;;;;;;;7397769;19;20494;-81
2022/04/22 17:12:48;;;;;;;1.70;1.42;;;;;;;;;;7395623;19;20006;-81
2022/04/22 17:23:52;;;;;;;2.65;1.65;;;;;;;;;;7398233;19;20032;-85
2022/04/22 17:26:32;;;;;;;3.78;1.60;;;;;;;;;;7404736;19;20018;-86
2022/04/22 17:28:58;;;;;;;1.63;1.25;;;;;;;;;;7405679;19;20031;-84
2022/04/22 17:31:23;;;;;;;1.83;1.50;;;;;;;;;;7399748;19;20018;-84
2022/04/22 17:33:50;;;;;;;2.38;1.58;;;;;;;;;;7398033;19;20010;-85
2022/04/22 17:36:15;;;;;;;1.95;1.30;;;;;;;;;;7401121;19;20030;-84
2022/04/22 17:38:45;;;;;;;2.80;1.58;;;;;;;;;;7396177;19;20014;-82
2022/04/22 17:41:10;;;;;;;3.92;1.50;;;;;;;;;;7395723;19;20010;-82
2022/04/22 17:43:35;;;;;;;1.58;1.20;;;;;;;;;;7396315;19;20402;-83
2022/04/22 17:46:01;;;;;;;2.20;1.50;;;;;;;;;;7398816;19;20014;-82
2022/04/22 17:48:26;;;;;;;1.30;1.20;;;;;;;;;;7401107;19;20145;-82
2022/04/22 17:50:52;;;;;;;2.53;1.27;;;;;;;;;;7393215;19;20023;-82
2022/04/22 17:53:19;;;;;;;1.25;1.08;;;;;;;;;;7399434;19;20001;-84
2022/04/22 17:55:44;;;;;;;2.97;1.60;;;;;;;;;;7406018;19;20020;-84
2022/04/22 17:58:10;;;;;;;2.10;1.50;;;;;;;;;;7400718;19;20014;-84
2022/04/22 18:00:36;;;;;;;2.33;1.50;;;;;;;;;;7397388;19;20474;-84
2022/04/22 18:03:01;;;;;;;2.40;1.58;;;;;;;;;;7395625;19;20006;-82
2022/04/22 18:05:27;;;;;;;5.13;1.92;;;;;;;;;;7396783;19;20561;-80
2022/04/22 18:07:54;;;;;;;3.85;2.47;;;;;;;;;;7399746;19;20381;-83
2022/04/22 18:10:19;;;;;;;3.10;1.83;;;;;;;;;;7392878;19;20393;-83
2022/04/22 18:12:44;;;;;;;2.00;1.80;;;;;;;;;;7394635;19;20014;-82
2022/04/22 18:17:54;;;;;;;3.42;1.98;;;;;;;;;;7396833;19;20367;-82
2022/04/22 18:20:19;;;;;;;2.67;1.88;;;;;;;;;;7393124;19;20097;-80
2022/04/22 18:22:45;;;;;;;2.15;1.80;;;;;;;;;;7396626;19;20310;-82
2022/04/22 18:25:11;;;;;;;3.45;1.90;;;;;;;;;;7396815;19;20011;-82
2022/04/22 18:27:37;;;;;;;12.38;1.83;;;;;;;;;;7398695;19;20010;-80
2022/04/22 18:30:04;;;;;;;6.32;2.20;;;;;;;;;;7395036;19;20023;-81
2022/04/22 18:32:30;;;;;;;4.35;2.10;;;;;;;;;;7393021;19;20014;-79
2022/04/22 18:34:56;;;;;;;5.07;2.00;;;;;;;;;;7396461;19;20046;-82
2022/04/22 18:37:25;;;;;;;8.73;2.30;;;;;;;;;;7398020;19;20006;-81
2022/04/22 18:39:51;;;;;;;2.25;1.65;;;;;;;;;;7396550;19;20702;-79
2022/04/22 18:42:16;;;;;;;3.63;2.00;;;;;;;;;;7395766;19;20007;-79
2022/04/22 18:44:41;;;;;;;2.85;2.40;;;;;;;;;;7396371;19;20014;-79
2022/04/22 18:47:06;;;;;;;2.55;2.05;;;;;;;;;;7395872;19;20006;-79
2022/04/22 18:49:34;;;;;;;2.97;2.08;;;;;;;;;;7395970;19;20014;-80
2022/04/22 18:51:59;;;;;;;2.50;2.00;;;;;;;;;;7394246;19;20011;-78
2022/04/22 18:54:27;;;;;;;3.03;2.38;;;;;;;;;;7397027;19;20090;-78
2022/04/22 18:56:52;;;;;;;5.07;2.63;;;;;;;;;;7404013;19;20006;-80
2022/04/22 18:59:18;;;;;;;11.02;2.03;;;;;;;;;;7397139;19;20010;-80
2022/04/22 19:01:44;;;;;;;5.57;2.70;;;;;;;;;;7396067;19;20016;-82
2022/04/22 19:04:10;;;;;;;4.45;2.50;;;;;;;;;;7396256;19;20022;-85
2022/04/22 19:06:35;;;;;;;4.28;2.70;;;;;;;;;;7397113;19;20006;-81
2022/04/22 19:09:00;;;;;;;5.38;3.03;;;;;;;;;;7392492;19;20021;-80
2022/04/22 19:11:26;;;;;;;5.32;3.10;;;;;;;;;;7390605;19;20019;-79
2022/04/22 19:13:51;;;;;;;3.25;2.53;;;;;;;;;;7397938;19;20016;-80
2022/04/22 19:16:16;;;;;;;5.95;3.00;;;;;;;;;;7395165;19;19998;-82
2022/04/22 19:18:43;;;;;;;3.13;2.50;;;;;;;;;;7393796;19;20030;-82
2022/04/22 19:21:09;;;;;;;3.97;2.80;;;;;;;;;;7394189;19;20361;-80
2022/04/22 19:23:34;;;;;;;5.25;3.78;;;;;;;;;;7393837;19;20014;-82
2022/04/22 19:26:01;;;;;;;5.97;4.03;;;;;;;;;;7396711;19;20053;-81
2022/04/22 19:28:26;;;;;;;4.22;3.13;;;;;;;;;;7396019;19;20011;-83
2022/04/22 19:30:52;;;;;;;3.50;2.95;;;;;;;;;;7393377;19;20005;-81
2022/04/22 19:33:17;;;;;;;4.43;3.10;;;;;;;;;;7396081;19;20018;-82
2022/04/22 19:35:43;;;;;;;4.55;3.05;;;;;;;;;;7395830;19;20026;-83
2022/04/22 19:40:52;;;;;;;3.85;2.70;;;;;;;;;;7395277;19;20013;-81
2022/04/22 19:43:19;;;;;;;3.65;2.85;;;;;;;;;;7393212;19;20022;-80
2022/04/22 19:45:48;;;;;;;4.47;3.05;;;;;;;;;;7390824;19;20010;-82
2022/04/22 19:48:15;;;;;;;5.90;3.88;;;;;;;;;;7393128;19;20358;-83
2022/04/22 19:50:42;;;;;;;4.63;3.45;;;;;;;;;;7390462;19;20030;-79
2022/04/22 19:53:08;;;;;;;3.78;3.03;;;;;;;;;;7388863;19;20135;-81
2022/04/22 19:55:33;;;;;;;4.65;2.97;;;;;;;;;;7390562;19;20392;-83
2022/04/22 19:57:58;;;;;;;4.18;3.03;;;;;;;;;;7394895;19;20335;-80
2022/04/22 20:00:24;;;;;;;5.72;3.20;;;;;;;;;;7396958;19;20014;-82
2022/04/22 20:02:49;;;;;;;3.78;2.75;;;;;;;;;;7393825;19;20005;-82
2022/04/22 20:05:15;;;;;;;5.47;3.00;;;;;;;;;;7398032;19;20002;-82
2022/04/22 20:07:40;;;;;;;11.75;7.82;;;;;;;;;;7393834;19;20010;-84
2022/04/22 20:10:06;;;;;;;8.23;4.75;;;;;;;;;;7393984;19;20018;-84